Bookmark and Share
Track history (hours):
 

Max Planck

Last reported at 2014-Apr-18 15:31 UTC. Time now 2014-Apr-18 16:22 UTC.
Position N 35°28' E 139°44'.

Length 99.9 m; beam 16.2 m; draft 6.8 m.

Type: Ship. MMSI: 636091773.

NotesDate/timePositionNaut miles runAvg speedWind from/ knotsBaromVisibWave heightAir tempDewpointWater temp
2014-Apr-18 15:31N 35°28' E 139°44'0 0.0
2014-Apr-18 14:31N 35°28' E 139°44'0 0.0
2014-Apr-18 13:34N 35°28' E 139°44'0 0.0
2014-Apr-18 12:33N 35°28' E 139°44'0 0.0
2014-Apr-18 11:33N 35°28' E 139°44'0 0.0
2014-Apr-18 10:32N 35°28' E 139°44'0 0.0
2014-Apr-18 09:32N 35°28' E 139°44'0 0.0
2014-Apr-18 08:28N 35°28' E 139°44'0 0.1
2014-Apr-18 07:31N 35°28' E 139°44'0 0.0
2014-Apr-18 06:34N 35°28' E 139°44'0 0.0
2014-Apr-18 05:33N 35°28' E 139°44'0 0.0
2014-Apr-18 04:33N 35°28' E 139°44'0 0.1
2014-Apr-18 03:32N 35°28' E 139°44'0 0.0
2014-Apr-18 02:32N 35°28' E 139°44'0 0.0
2014-Apr-18 01:31N 35°28' E 139°44'0 0.0
2014-Apr-18 00:31N 35°28' E 139°44'0 0.0
2014-Apr-17 23:31N 35°28' E 139°44'0 0.0
2014-Apr-17 22:33N 35°28' E 139°44'0 0.0
2014-Apr-17 21:33N 35°28' E 139°44'0 0.0
2014-Apr-17 20:29N 35°28' E 139°44'0 0.1
2014-Apr-17 19:33N 35°28' E 139°44'7 7.4
2014-Apr-17 18:33N 35°21' E 139°45'1111.4
2014-Apr-17 17:33N 35°09' E 139°46'1212.0
2014-Apr-17 16:33N 34°58' E 139°41'1212.2
2014-Apr-17 15:32N 34°47' E 139°34'  
2014-Apr-12 22:14N 22°22' E 120°12'1012.7
2014-Apr-12 21:28N 22°31' E 120°09'9 7.2
2014-Apr-12 20:15N 22°37' E 120°16'2 0.1
2014-Apr-12 02:19N 22°36' E 120°18'4 5.5
2014-Apr-12 01:33N 22°37' E 120°14'10 9.6
2014-Apr-12 00:33N 22°43' E 120°05'1111.0
2014-Apr-11 23:33N 22°51' E 119°58'20 9.7
2014-Apr-11 21:31N 23°10' E 119°51'9 9.6
2014-Apr-11 20:33N 23°19' E 119°52'2010.2
2014-Apr-11 18:33N 23°39' E 119°56'1511.9
2014-Apr-11 17:18N 23°54' E 119°58'912.6
2014-Apr-11 16:33N 24°03' E 119°60'2311.6
2014-Apr-11 14:32N 24°27' E 120°00'1211.8
2014-Apr-11 13:31N 24°38' E 120°05'1211.1
2014-Apr-11 12:27N 24°49' E 120°08'1011.1
2014-Apr-11 11:32N 24°59' E 120°11'  

Dump ship's entire track history

sailing weather and tide predictions

Max Planck — ELZY8 — position and weather